createdAt,value
2019-05-18T00:00:48.760Z,79.11
2019-05-18T00:03:19.636Z,79.08
2019-05-18T00:05:47.746Z,78.68
2019-05-18T00:08:14.546Z,78.82
2019-05-18T00:10:43.086Z,79.26
2019-05-18T00:13:10.111Z,78.77
2019-05-18T00:15:36.948Z,78.07
2019-05-18T00:18:04.009Z,78.14
2019-05-18T00:20:31.140Z,77.88
2019-05-18T00:22:58.063Z,77.60
2019-05-18T00:25:24.832Z,78.28
2019-05-18T00:27:52.795Z,78.89
2019-05-18T00:30:19.774Z,79.21
2019-05-18T00:32:46.528Z,77.46
2019-05-18T00:35:16.175Z,79.11
2019-05-18T00:37:41.952Z,78.47
2019-05-18T00:40:10.089Z,80.08
2019-05-18T00:42:37.032Z,80.17
2019-05-18T00:45:08.259Z,79.07
2019-05-18T00:47:41.273Z,79.03
2019-05-18T00:50:05.570Z,79.47
2019-05-18T00:52:33.512Z,80.58
2019-05-18T00:55:00.093Z,81.25
2019-05-18T00:57:27.796Z,79.81
2019-05-18T00:59:55.666Z,79.74
2019-05-18T01:02:22.720Z,79.02
2019-05-18T01:04:49.343Z,79.55
2019-05-18T01:07:16.957Z,79.94
2019-05-18T01:09:43.729Z,79.71
2019-05-18T01:12:10.706Z,78.39
2019-05-18T01:14:37.503Z,78.72
2019-05-18T01:17:04.425Z,78.56
2019-05-18T01:19:31.156Z,79.40
2019-05-18T01:21:59.193Z,78.82
2019-05-18T01:24:28.617Z,79.51
2019-05-18T01:26:55.633Z,79.59
2019-05-18T01:29:22.436Z,79.48
2019-05-18T01:31:49.198Z,80.65
2019-05-18T01:34:15.845Z,79.89
2019-05-18T01:36:43.416Z,79.53
2019-05-18T01:39:10.007Z,79.87
2019-05-18T01:41:37.049Z,79.06
2019-05-18T01:44:03.756Z,79.16
2019-05-18T01:46:30.428Z,78.51
2019-05-18T01:48:57.017Z,78.15
2019-05-18T01:51:24.895Z,78.62
2019-05-18T01:53:51.483Z,79.27
2019-05-18T01:56:18.637Z,79.72
2019-05-18T01:58:45.767Z,79.96
2019-05-18T02:01:12.760Z,79.68
2019-05-18T02:03:40.520Z,78.72
2019-05-18T02:06:07.344Z,79.65
2019-05-18T02:08:33.907Z,79.65
2019-05-18T02:11:00.541Z,79.45
2019-05-18T02:13:28.404Z,79.53
2019-05-18T02:15:55.813Z,79.34
2019-05-18T02:18:40.913Z,80.33
2019-05-18T02:21:08.975Z,80.60
2019-05-18T02:23:35.616Z,80.95
2019-05-18T02:26:02.275Z,79.84
2019-05-18T02:28:31.753Z,79.98
2019-05-18T02:30:59.566Z,79.78
2019-05-18T02:33:26.240Z,79.83
2019-05-18T02:35:54.170Z,79.52
2019-05-18T02:38:20.771Z,79.39
2019-05-18T02:40:47.941Z,79.43
2019-05-18T02:43:15.574Z,79.29
2019-05-18T02:45:42.403Z,79.22
2019-05-18T02:48:09.451Z,79.85
2019-05-18T02:50:36.428Z,79.38
2019-05-18T02:53:03.605Z,79.45
2019-05-18T02:55:30.344Z,79.95
2019-05-18T02:57:56.986Z,79.24
2019-05-18T03:00:24.058Z,79.30
2019-05-18T03:02:51.940Z,79.81
2019-05-18T03:05:20.419Z,79.96
2019-05-18T03:07:47.470Z,80.17
2019-05-18T03:10:17.465Z,81.09
2019-05-18T03:12:44.395Z,81.13
2019-05-18T03:15:12.344Z,81.61
2019-05-18T03:17:40.092Z,81.11
2019-05-18T03:20:09.376Z,81.22
2019-05-18T03:22:36.498Z,82.41
2019-05-18T03:25:07.787Z,81.81
2019-05-18T03:27:35.627Z,81.03
2019-05-18T03:30:07.189Z,80.45
2019-05-18T03:32:34.228Z,80.68
2019-05-18T03:35:01.090Z,81.48
2019-05-18T03:37:27.781Z,81.49
2019-05-18T03:39:55.764Z,81.20
2019-05-18T03:42:22.372Z,81.60
2019-05-18T03:44:48.945Z,81.35
2019-05-18T03:47:16.871Z,81.39
2019-05-18T03:49:43.476Z,81.43
2019-05-18T03:52:10.071Z,80.69
2019-05-18T03:54:36.747Z,80.94
2019-05-18T03:57:03.596Z,81.07
2019-05-18T03:59:31.315Z,81.28
2019-05-18T04:01:58.071Z,81.08
2019-05-18T04:04:25.977Z,80.93
2019-05-18T04:06:52.579Z,81.33
2019-05-18T04:09:19.385Z,80.96
2019-05-18T04:11:46.164Z,80.50
2019-05-18T04:14:13.302Z,80.53
2019-05-18T04:16:40.009Z,81.11
2019-05-18T04:19:07.719Z,80.64
2019-05-18T04:21:34.396Z,80.83
2019-05-18T04:24:01.424Z,80.34
2019-05-18T04:26:28.790Z,80.66
2019-05-18T04:28:56.814Z,80.45
2019-05-18T04:31:23.397Z,79.86
2019-05-18T04:33:50.500Z,80.45
2019-05-18T04:36:17.659Z,80.63
2019-05-18T04:38:44.282Z,80.32
2019-05-18T04:41:10.857Z,80.96
2019-05-18T04:43:37.459Z,81.50
2019-05-18T04:46:04.203Z,80.27
2019-05-18T04:48:31.327Z,80.86
2019-05-18T04:50:59.152Z,81.30
2019-05-18T04:53:27.655Z,82.53
2019-05-18T04:55:56.799Z,80.54
2019-05-18T04:58:23.397Z,80.05
2019-05-18T05:00:51.265Z,80.66
2019-05-18T05:03:18.297Z,80.70
2019-05-18T05:05:44.945Z,79.06
2019-05-18T05:08:11.649Z,78.76
2019-05-18T05:10:38.256Z,78.44
2019-05-18T05:13:07.411Z,77.96
2019-05-18T05:15:34.436Z,77.68
2019-05-18T05:18:01.620Z,78.75
2019-05-18T05:20:28.706Z,79.74
2019-05-18T05:22:56.399Z,83.40
2019-05-18T05:25:26.058Z,82.81
2019-05-18T05:27:52.824Z,81.50
2019-05-18T05:30:21.351Z,81.75
2019-05-18T05:32:48.250Z,81.04
2019-05-18T05:35:15.076Z,83.71
2019-05-18T05:37:41.825Z,83.47
2019-05-18T05:40:08.904Z,82.39
2019-05-18T05:42:36.004Z,81.40
2019-05-18T05:45:06.656Z,81.36
2019-05-18T05:47:34.546Z,81.76
2019-05-18T05:50:01.348Z,83.52
2019-05-18T05:52:29.481Z,84.32
2019-05-18T05:54:56.059Z,83.37
2019-05-18T05:57:23.911Z,83.14
2019-05-18T05:59:51.753Z,82.07
2019-05-18T06:02:18.937Z,81.51
2019-05-18T06:04:45.790Z,81.50
2019-05-18T06:07:13.699Z,81.33
2019-05-18T06:09:40.295Z,80.59
2019-05-18T06:12:07.006Z,82.57
2019-05-18T06:14:34.151Z,83.05
2019-05-18T06:17:00.738Z,83.86
2019-05-18T06:19:27.283Z,82.75
2019-05-18T06:21:55.967Z,81.92
2019-05-18T06:24:24.233Z,81.90
2019-05-18T06:26:50.860Z,81.97
2019-05-18T06:29:18.858Z,83.59
2019-05-18T06:31:45.542Z,82.31
2019-05-18T06:34:12.408Z,82.13
2019-05-18T06:36:39.038Z,82.05
2019-05-18T06:39:07.891Z,81.96
2019-05-18T06:41:34.727Z,82.37
2019-05-18T06:44:02.909Z,82.10
2019-05-18T06:46:30.294Z,82.91
2019-05-18T06:49:00.986Z,83.48
2019-05-18T06:51:27.635Z,83.62
2019-05-18T06:53:54.486Z,82.59
2019-05-18T06:56:23.976Z,80.83
2019-05-18T06:58:54.192Z,82.98
2019-05-18T07:01:21.299Z,82.79
2019-05-18T07:03:48.129Z,82.96
2019-05-18T07:06:14.902Z,81.87
2019-05-18T07:08:41.555Z,83.29
2019-05-18T07:11:08.613Z,83.18
2019-05-18T07:13:35.300Z,83.82
2019-05-18T07:16:02.073Z,83.52
2019-05-18T07:18:30.285Z,82.40
2019-05-18T07:20:57.370Z,82.03
2019-05-18T07:23:24.633Z,83.16
2019-05-18T07:25:51.414Z,82.27
2019-05-18T07:28:18.310Z,81.08
2019-05-18T07:30:45.184Z,81.74
2019-05-18T07:33:12.486Z,80.96
2019-05-18T07:35:39.275Z,81.63
2019-05-18T07:38:06.123Z,82.72
2019-05-18T07:40:34.427Z,83.13
2019-05-18T07:43:02.561Z,83.08
2019-05-18T07:45:29.381Z,83.73
2019-05-18T07:47:56.152Z,84.37
2019-05-18T07:50:23.278Z,83.50
2019-05-18T07:52:52.608Z,83.59
2019-05-18T07:55:20.889Z,81.82
2019-05-18T07:57:47.863Z,82.13
2019-05-18T08:00:16.093Z,80.88
2019-05-18T08:02:42.901Z,81.72
2019-05-18T08:05:10.446Z,81.53
2019-05-18T08:07:40.288Z,81.34
2019-05-18T08:10:08.857Z,82.55
2019-05-18T08:12:36.986Z,81.72
2019-05-18T08:15:09.592Z,81.24
2019-05-18T08:17:36.467Z,80.24
2019-05-18T08:20:06.862Z,79.48
2019-05-18T08:22:33.418Z,79.39
2019-05-18T08:25:01.318Z,79.34
2019-05-18T08:27:28.004Z,78.73
2019-05-18T08:29:55.713Z,80.70
2019-05-18T08:32:22.392Z,81.55
2019-05-18T08:34:49.976Z,81.33
2019-05-18T08:37:17.918Z,82.07
2019-05-18T08:39:44.605Z,82.32
2019-05-18T08:42:12.672Z,81.50
2019-05-18T08:44:40.442Z,80.72
2019-05-18T08:47:07.221Z,80.12
2019-05-18T08:49:34.109Z,78.65
2019-05-18T08:52:08.277Z,78.96
2019-05-18T08:54:30.841Z,78.10
2019-05-18T08:56:57.694Z,80.54
2019-05-18T08:59:24.465Z,80.90
2019-05-18T09:01:51.701Z,80.09
2019-05-18T09:04:19.699Z,80.55
2019-05-18T09:06:47.534Z,81.79
2019-05-18T09:09:14.319Z,80.87
2019-05-18T09:11:42.658Z,80.12
2019-05-18T09:14:09.813Z,81.53
2019-05-18T09:16:37.590Z,79.89
2019-05-18T09:19:05.671Z,79.75
2019-05-18T09:21:32.258Z,80.00
2019-05-18T09:23:58.904Z,79.09
2019-05-18T09:26:26.721Z,79.18
2019-05-18T09:28:54.495Z,78.97
2019-05-18T09:31:21.333Z,78.04
2019-05-18T09:33:48.476Z,77.52
2019-05-18T09:36:17.196Z,76.66
2019-05-18T09:38:45.617Z,78.25
2019-05-18T09:41:12.984Z,77.40
2019-05-18T09:43:39.862Z,75.58
2019-05-18T09:46:06.654Z,75.56
2019-05-18T09:48:33.658Z,77.58
2019-05-18T09:51:00.483Z,76.54
2019-05-18T09:53:29.962Z,77.72
2019-05-18T09:55:55.940Z,76.49
2019-05-18T09:58:22.990Z,75.09
2019-05-18T10:00:52.284Z,75.38
2019-05-18T10:03:19.153Z,72.54
2019-05-18T10:05:46.244Z,74.19
2019-05-18T10:08:14.257Z,73.71
2019-05-18T10:10:41.536Z,72.90
2019-05-18T10:13:08.882Z,71.78
2019-05-18T10:15:35.498Z,73.11
2019-05-18T10:18:03.663Z,72.58
2019-05-18T10:20:30.670Z,73.83
2019-05-18T10:23:11.896Z,71.08
2019-05-18T10:25:27.115Z,70.72
2019-05-18T10:27:54.958Z,70.74
2019-05-18T10:30:22.263Z,71.38
2019-05-18T10:32:49.052Z,71.65
2019-05-18T10:35:16.684Z,69.84
2019-05-18T10:37:43.669Z,69.78
2019-05-18T10:40:11.781Z,71.95
2019-05-18T10:42:38.690Z,73.60
2019-05-18T10:45:07.999Z,70.61
2019-05-18T10:47:35.511Z,67.69
2019-05-18T10:50:05.197Z,68.68
2019-05-18T10:52:32.415Z,68.21
2019-05-18T10:54:59.272Z,66.99
2019-05-18T10:57:26.144Z,67.51
2019-05-18T10:59:54.012Z,66.92
2019-05-18T11:02:20.787Z,70.09
2019-05-18T11:04:47.403Z,70.41
2019-05-18T11:07:14.053Z,68.14
2019-05-18T11:09:42.227Z,69.37
2019-05-18T11:12:09.026Z,68.03
2019-05-18T11:14:35.750Z,70.04
2019-05-18T11:17:02.892Z,70.09
2019-05-18T11:19:29.742Z,67.59
2019-05-18T11:21:56.929Z,65.53
2019-05-18T11:24:24.045Z,65.43
2019-05-18T11:26:50.810Z,64.66
2019-05-18T11:29:17.542Z,63.52
2019-05-18T11:31:44.534Z,66.58
2019-05-18T11:34:11.332Z,65.48
2019-05-18T11:36:41.190Z,62.23
2019-05-18T11:39:08.000Z,62.15
2019-05-18T11:41:36.236Z,61.24
2019-05-18T11:44:04.962Z,64.74
2019-05-18T11:46:32.686Z,63.16
2019-05-18T11:49:00.575Z,63.29
2019-05-18T11:51:31.028Z,62.79
2019-05-18T11:53:58.729Z,62.67
2019-05-18T11:56:26.733Z,63.65
2019-05-18T11:58:54.487Z,60.13
2019-05-18T12:01:22.363Z,56.78
2019-05-18T12:03:49.034Z,55.73
2019-05-18T12:06:18.395Z,56.91
2019-05-18T12:08:44.998Z,57.83
2019-05-18T12:11:12.773Z,57.32
2019-05-18T12:13:39.373Z,59.66
2019-05-18T12:16:07.256Z,62.28
2019-05-18T12:18:33.945Z,56.58
2019-05-18T12:21:01.599Z,58.41
2019-05-18T12:23:28.696Z,59.70
2019-05-18T12:25:55.466Z,56.52
2019-05-18T12:28:22.208Z,55.21
2019-05-18T12:30:49.835Z,58.20
2019-05-18T12:33:17.686Z,58.61
2019-05-18T12:35:44.772Z,58.65
2019-05-18T12:38:11.813Z,58.09
2019-05-18T12:40:38.672Z,58.72
2019-05-18T12:43:05.456Z,60.48
2019-05-18T12:45:32.353Z,58.13
2019-05-18T12:47:59.183Z,59.67
2019-05-18T12:50:26.345Z,56.64
2019-05-18T12:52:53.525Z,56.93
2019-05-18T12:55:21.064Z,58.30
2019-05-18T12:57:47.880Z,58.57
2019-05-18T13:00:17.013Z,58.13
2019-05-18T13:02:43.868Z,60.17
2019-05-18T13:05:13.082Z,58.04
2019-05-18T13:07:41.980Z,56.20
2019-05-18T13:10:14.217Z,57.30
2019-05-18T13:12:41.141Z,55.66
2019-05-18T13:15:11.764Z,54.41
2019-05-18T13:17:39.915Z,55.35
2019-05-18T13:20:10.406Z,55.55
2019-05-18T13:22:38.543Z,54.72
2019-05-18T13:25:07.587Z,54.87
2019-05-18T13:27:39.538Z,57.54
2019-05-18T13:30:10.332Z,60.79
2019-05-18T13:32:37.071Z,61.83
2019-05-18T13:35:06.483Z,62.97
2019-05-18T13:37:34.274Z,59.17
2019-05-18T13:40:01.823Z,57.01
2019-05-18T13:42:31.437Z,54.89
2019-05-18T13:44:59.408Z,54.39
2019-05-18T13:47:27.156Z,51.73
2019-05-18T13:49:53.780Z,52.63
2019-05-18T13:52:20.451Z,51.68
2019-05-18T13:55:02.129Z,50.21
2019-05-18T13:57:17.635Z,50.43
2019-05-18T13:59:44.672Z,49.56
2019-05-18T14:02:12.905Z,50.46
2019-05-18T14:04:39.693Z,50.13
2019-05-18T14:07:07.080Z,49.11
2019-05-18T14:09:34.907Z,51.08
2019-05-18T14:12:01.946Z,48.95
2019-05-18T14:14:31.268Z,51.23
2019-05-18T14:16:57.956Z,49.37
2019-05-18T14:19:27.590Z,48.40
2019-05-18T14:21:54.622Z,49.46
2019-05-18T14:24:21.517Z,51.41
2019-05-18T14:26:49.212Z,55.97
2019-05-18T14:29:15.864Z,51.21
2019-05-18T14:31:43.016Z,51.23
2019-05-18T14:34:11.091Z,54.11
2019-05-18T14:36:40.476Z,52.36
2019-05-18T14:39:08.620Z,52.31
2019-05-18T14:41:35.645Z,49.63
2019-05-18T14:44:04.021Z,49.64
2019-05-18T14:46:31.065Z,49.48
2019-05-18T14:48:57.738Z,48.79
2019-05-18T14:51:24.338Z,48.79
2019-05-18T14:53:53.165Z,49.36
2019-05-18T14:56:21.228Z,49.18
2019-05-18T14:58:49.109Z,49.27
2019-05-18T15:01:18.772Z,49.90
2019-05-18T15:03:45.485Z,49.71
2019-05-18T15:06:12.016Z,50.57
2019-05-18T15:08:39.892Z,49.71
2019-05-18T15:11:07.850Z,49.88
2019-05-18T15:13:34.457Z,49.18
2019-05-18T15:16:01.567Z,49.35
2019-05-18T15:18:28.657Z,47.56
2019-05-18T15:20:55.308Z,48.88
2019-05-18T15:23:23.411Z,51.20
2019-05-18T15:25:54.180Z,49.94
2019-05-18T15:28:21.173Z,49.97
2019-05-18T15:31:59.506Z,52.33
2019-05-18T15:34:27.339Z,51.99
2019-05-18T15:36:54.028Z,53.17
2019-05-18T15:39:21.981Z,53.90
2019-05-18T15:41:51.109Z,58.29
2019-05-18T15:44:18.163Z,60.66
2019-05-18T15:46:45.193Z,59.91
2019-05-18T15:49:12.290Z,61.04
2019-05-18T15:51:39.365Z,62.99
2019-05-18T15:54:06.064Z,61.20
2019-05-18T15:56:34.199Z,62.00
2019-05-18T15:59:01.166Z,61.29
2019-05-18T16:01:30.252Z,60.03
2019-05-18T16:03:58.243Z,58.15
2019-05-18T16:06:26.030Z,58.68
2019-05-18T16:08:53.119Z,58.71
2019-05-18T16:11:19.811Z,57.60
2019-05-18T16:13:52.217Z,59.15
2019-05-18T16:16:19.500Z,56.50
2019-05-18T16:18:46.581Z,57.98
2019-05-18T16:21:13.575Z,57.02
2019-05-18T16:23:42.280Z,57.27
2019-05-18T16:26:21.172Z,58.57
2019-05-18T16:28:37.866Z,58.57
2019-05-18T16:31:04.539Z,59.19
2019-05-18T16:33:31.634Z,61.34
2019-05-18T16:35:58.671Z,62.00
2019-05-18T16:38:26.507Z,63.27
2019-05-18T16:40:53.298Z,64.11
2019-05-18T16:43:20.360Z,64.52
2019-05-18T16:45:47.152Z,64.01
2019-05-18T16:48:14.584Z,63.21
2019-05-18T16:50:41.943Z,64.95
2019-05-18T16:53:08.762Z,65.27
2019-05-18T16:55:36.796Z,65.37
2019-05-18T16:58:03.659Z,64.10
2019-05-18T17:00:30.880Z,63.50
2019-05-18T17:02:59.899Z,63.94
2019-05-18T17:05:27.083Z,64.28
2019-05-18T17:07:54.181Z,64.76
2019-05-18T17:10:21.068Z,65.01
2019-05-18T17:12:49.304Z,65.26
2019-05-18T17:15:16.909Z,65.08
2019-05-18T17:17:44.262Z,68.07
2019-05-18T17:20:13.328Z,68.75
2019-05-18T17:22:40.221Z,70.61
2019-05-18T17:25:07.629Z,70.43
2019-05-18T17:27:34.579Z,69.51
2019-05-18T17:30:03.317Z,68.88
2019-05-18T17:32:31.184Z,68.46
2019-05-18T17:34:58.659Z,69.28
2019-05-18T17:37:25.671Z,68.88
2019-05-18T17:39:52.349Z,68.62
2019-05-18T17:42:19.103Z,68.83
2019-05-18T17:44:46.168Z,68.99
2019-05-18T17:47:12.877Z,69.15
2019-05-18T17:49:40.049Z,70.43
2019-05-18T17:52:08.116Z,68.85
2019-05-18T17:54:34.871Z,68.53
2019-05-18T17:57:08.536Z,68.62
2019-05-18T17:59:30.363Z,69.53
2019-05-18T18:01:57.248Z,69.71
2019-05-18T18:04:24.122Z,70.20
2019-05-18T18:06:50.864Z,70.88
2019-05-18T18:09:17.930Z,71.26
2019-05-18T18:11:44.598Z,69.75
2019-05-18T18:14:11.856Z,70.75
2019-05-18T18:16:38.730Z,71.67
2019-05-18T18:19:05.484Z,71.65
2019-05-18T18:21:32.380Z,72.06
2019-05-18T18:23:59.328Z,71.73
2019-05-18T18:26:26.003Z,72.40
2019-05-18T18:28:52.912Z,72.41
2019-05-18T18:31:20.553Z,73.50
2019-05-18T18:33:47.375Z,73.90
2019-05-18T18:36:14.372Z,74.27
2019-05-18T18:38:41.045Z,74.10
2019-05-18T18:41:09.012Z,75.26
2019-05-18T18:43:38.025Z,74.87
2019-05-18T18:46:07.009Z,74.59
2019-05-18T18:48:33.739Z,74.98
2019-05-18T18:51:00.478Z,75.01
2019-05-18T18:53:27.378Z,74.43
2019-05-18T18:55:54.270Z,74.25
2019-05-18T18:58:21.343Z,75.03
2019-05-18T19:00:49.145Z,75.38
2019-05-18T19:03:17.034Z,74.71
2019-05-18T19:05:43.622Z,75.00
2019-05-18T19:08:10.696Z,74.03
2019-05-18T19:10:37.249Z,74.78
2019-05-18T19:13:04.250Z,76.17
2019-05-18T19:15:32.278Z,76.57
2019-05-18T19:17:59.193Z,76.56
2019-05-18T19:20:26.615Z,77.51
2019-05-18T19:22:53.464Z,78.07
2019-05-18T19:25:20.505Z,78.29
2019-05-18T19:27:54.481Z,78.51
2019-05-18T19:30:18.039Z,77.97
2019-05-18T19:32:46.184Z,77.84
2019-05-18T19:35:13.495Z,79.47
2019-05-18T19:37:41.427Z,78.50
2019-05-18T19:40:09.122Z,77.78
2019-05-18T19:42:36.309Z,78.64
2019-05-18T19:45:06.605Z,78.05
2019-05-18T19:47:34.204Z,77.66
2019-05-18T19:50:01.103Z,76.74
2019-05-18T19:52:27.895Z,78.46
2019-05-18T19:54:54.585Z,77.92
2019-05-18T19:57:24.247Z,76.62
2019-05-18T19:59:52.521Z,76.53
2019-05-18T20:02:20.707Z,75.92
2019-05-18T20:05:05.563Z,77.55
2019-05-18T20:07:16.606Z,78.92
2019-05-18T20:09:44.004Z,79.06
2019-05-18T20:12:12.353Z,78.91
2019-05-18T20:14:40.575Z,78.89
2019-05-18T20:17:10.302Z,79.12
2019-05-18T20:19:39.548Z,79.06
2019-05-18T20:22:07.527Z,79.01
2019-05-18T20:24:34.598Z,79.57
2019-05-18T20:27:01.773Z,79.32
2019-05-18T20:29:29.766Z,78.94
2019-05-18T20:31:58.320Z,78.46
2019-05-18T20:34:25.881Z,78.75
2019-05-18T20:36:52.608Z,79.13
2019-05-18T20:39:19.476Z,77.78
2019-05-18T20:41:47.127Z,78.86
2019-05-18T20:44:13.774Z,78.92
2019-05-18T20:46:41.693Z,78.53
2019-05-18T20:49:08.833Z,77.66
2019-05-18T20:51:35.603Z,78.42
2019-05-18T20:54:02.818Z,78.34
2019-05-18T20:56:30.786Z,79.03
2019-05-18T20:58:58.730Z,79.39
2019-05-18T21:01:27.002Z,78.39
2019-05-18T21:03:53.935Z,77.49
2019-05-18T21:06:20.650Z,78.42
2019-05-18T21:08:47.537Z,78.67
2019-05-18T21:11:14.572Z,77.83
2019-05-18T21:13:41.211Z,77.12
2019-05-18T21:16:08.267Z,77.36
2019-05-18T21:18:35.107Z,78.27
2019-05-18T21:21:01.853Z,78.84
2019-05-18T21:23:28.686Z,78.75
2019-05-18T21:25:55.898Z,78.24
2019-05-18T21:28:22.790Z,78.59
2019-05-18T21:30:49.392Z,79.12
2019-05-18T21:33:16.459Z,77.97
2019-05-18T21:35:43.226Z,79.19
2019-05-18T21:38:10.455Z,78.75
2019-05-18T21:40:37.503Z,78.92
2019-05-18T21:43:04.990Z,78.60
2019-05-18T21:45:32.246Z,78.20
2019-05-18T21:47:59.087Z,79.75
2019-05-18T21:50:25.797Z,78.67
2019-05-18T21:52:53.592Z,77.74
2019-05-18T21:55:20.642Z,78.21
2019-05-18T21:57:47.385Z,77.16
2019-05-18T22:00:17.207Z,77.90
2019-05-18T22:02:45.985Z,78.30
2019-05-18T22:05:13.653Z,78.45
2019-05-18T22:07:40.426Z,78.45
2019-05-18T22:10:24.930Z,78.58
2019-05-18T22:12:42.337Z,79.26
2019-05-18T22:15:09.926Z,78.24
2019-05-18T22:17:38.984Z,78.76
2019-05-18T22:20:06.547Z,79.14
2019-05-18T22:22:34.258Z,78.50
2019-05-18T22:25:02.014Z,77.80
2019-05-18T22:27:30.019Z,78.18
2019-05-18T22:29:58.146Z,77.29
2019-05-18T22:32:24.946Z,78.32
2019-05-18T22:34:51.556Z,77.69
2019-05-18T22:37:18.690Z,77.71
2019-05-18T22:39:45.258Z,76.89
2019-05-18T22:42:12.067Z,77.63
2019-05-18T22:44:38.833Z,77.49
2019-05-18T22:47:06.949Z,77.31
2019-05-18T22:49:34.592Z,77.06
2019-05-18T22:52:02.343Z,77.60
2019-05-18T22:55:44.130Z,77.33
2019-05-18T22:58:10.906Z,76.99
2019-05-18T23:00:37.630Z,78.01
2019-05-18T23:03:04.507Z,77.68
2019-05-18T23:05:31.241Z,78.51
2019-05-18T23:07:59.275Z,78.26
2019-05-18T23:10:26.325Z,77.43
2019-05-18T23:12:53.108Z,77.75
2019-05-18T23:15:21.134Z,78.92
2019-05-18T23:17:48.075Z,78.99
2019-05-18T23:20:15.998Z,79.14
2019-05-18T23:22:44.239Z,78.24
2019-05-18T23:25:11.349Z,77.98
2019-05-18T23:27:38.130Z,78.54
2019-05-18T23:30:07.454Z,78.29
2019-05-18T23:32:34.183Z,78.33
2019-05-18T23:35:00.849Z,77.65
2019-05-18T23:37:28.022Z,78.35
2019-05-18T23:39:54.660Z,78.80
2019-05-18T23:42:22.354Z,77.92
2019-05-18T23:44:48.903Z,78.67
2019-05-18T23:47:15.919Z,78.67
2019-05-18T23:49:42.617Z,79.05
2019-05-18T23:52:10.037Z,78.18
2019-05-18T23:54:36.640Z,78.86
2019-05-18T23:57:03.374Z,78.91
2019-05-18T23:59:29.995Z,78.63
